createdAt,value
2022-08-17T00:01:30.165Z,78.80
2022-08-17T00:04:11.924Z,78.80
2022-08-17T00:06:38.698Z,78.80
2022-08-17T00:09:05.792Z,78.60
2022-08-17T00:11:34.547Z,78.70
2022-08-17T00:14:04.881Z,78.70
2022-08-17T00:16:55.341Z,78.80
2022-08-17T00:19:23.001Z,78.80
2022-08-17T00:22:31.235Z,78.80
2022-08-17T00:24:37.675Z,78.80
2022-08-17T00:27:04.358Z,78.60
2022-08-17T00:29:31.018Z,78.80
2022-08-17T00:31:57.687Z,78.80
2022-08-17T00:34:25.322Z,78.80
2022-08-17T00:36:54.580Z,78.80
2022-08-17T00:39:21.575Z,78.80
2022-08-17T00:41:48.310Z,78.80
2022-08-17T00:44:16.469Z,78.70
2022-08-17T00:46:43.726Z,78.80
2022-08-17T00:49:12.188Z,78.80
2022-08-17T00:51:44.327Z,79.60
2022-08-17T00:54:13.183Z,78.90
2022-08-17T00:56:41.288Z,78.80
2022-08-17T00:59:08.999Z,78.70
2022-08-17T01:01:36.460Z,78.90
2022-08-17T01:04:05.114Z,78.90
2022-08-17T01:06:32.461Z,78.90
2022-08-17T01:08:59.762Z,78.90
2022-08-17T01:11:27.010Z,78.90
2022-08-17T01:13:53.719Z,78.90
2022-08-17T01:16:25.628Z,78.80
2022-08-17T01:18:54.337Z,78.90
2022-08-17T01:21:24.088Z,78.90
2022-08-17T01:23:50.744Z,78.90
2022-08-17T01:26:17.843Z,78.90
2022-08-17T01:28:54.709Z,78.90
2022-08-17T01:31:23.800Z,78.90
2022-08-17T01:33:50.544Z,78.90
2022-08-17T01:36:17.214Z,79.00
2022-08-17T01:38:43.891Z,79.00
2022-08-17T01:41:12.952Z,79.00
2022-08-17T01:43:43.820Z,79.00
2022-08-17T01:46:14.769Z,79.00
2022-08-17T01:48:43.027Z,79.00
2022-08-17T01:51:09.747Z,79.00
2022-08-17T01:53:39.544Z,79.00
2022-08-17T01:56:08.575Z,79.00
2022-08-17T01:58:36.153Z,79.00
2022-08-17T02:01:03.479Z,79.00
2022-08-17T02:03:30.438Z,79.00
2022-08-17T02:05:57.146Z,79.00
2022-08-17T02:08:37.036Z,78.90
2022-08-17T02:11:11.959Z,79.00
2022-08-17T02:13:39.019Z,79.00
2022-08-17T02:16:06.109Z,79.00
2022-08-17T02:18:32.938Z,79.00
2022-08-17T02:21:00.049Z,79.50
2022-08-17T02:23:27.793Z,79.00
2022-08-17T02:25:55.813Z,79.00
2022-08-17T02:28:22.615Z,79.00
2022-08-17T02:31:01.866Z,79.00
2022-08-17T02:33:43.214Z,79.00
2022-08-17T02:36:11.262Z,79.00
2022-08-17T02:38:38.798Z,79.10
2022-08-17T02:41:05.588Z,79.00
2022-08-17T02:43:32.312Z,79.00
2022-08-17T02:45:58.984Z,79.00
2022-08-17T02:48:29.716Z,79.30
2022-08-17T02:50:57.959Z,79.00
2022-08-17T02:53:24.700Z,79.00
2022-08-17T02:55:52.754Z,79.10
2022-08-17T02:58:29.605Z,79.00
2022-08-17T03:01:03.373Z,78.80
2022-08-17T03:03:30.222Z,78.50
2022-08-17T03:05:56.881Z,78.30
2022-08-17T03:08:23.908Z,78.20
2022-08-17T03:10:50.679Z,78.20
2022-08-17T03:13:17.700Z,78.20
2022-08-17T03:15:45.330Z,78.20
2022-08-17T03:18:19.337Z,78.20
2022-08-17T03:20:51.414Z,78.20
2022-08-17T03:23:18.709Z,78.20
2022-08-17T03:25:53.171Z,78.20
2022-08-17T03:28:20.433Z,78.30
2022-08-17T03:30:47.166Z,78.20
2022-08-17T03:33:13.857Z,78.30
2022-08-17T03:35:40.904Z,78.30
2022-08-17T03:38:09.583Z,78.20
2022-08-17T03:40:57.192Z,78.20
2022-08-17T03:43:23.420Z,78.20
2022-08-17T03:46:19.289Z,78.20
2022-08-17T03:49:14.648Z,78.30
2022-08-17T03:52:00.193Z,78.40
2022-08-17T03:54:45.749Z,78.40
2022-08-17T03:57:12.530Z,78.50
2022-08-17T03:59:39.713Z,78.40
2022-08-17T04:02:12.532Z,78.40
2022-08-17T04:04:40.158Z,78.50
2022-08-17T04:07:07.466Z,78.40
2022-08-17T04:09:34.591Z,78.40
2022-08-17T04:12:04.601Z,78.40
2022-08-17T04:14:39.265Z,78.40
2022-08-17T04:17:21.324Z,78.40
2022-08-17T04:19:48.026Z,79.90
2022-08-17T04:22:30.189Z,78.70
2022-08-17T04:25:09.089Z,78.50
2022-08-17T04:27:36.029Z,78.50
2022-08-17T04:30:02.795Z,78.50
2022-08-17T04:33:03.902Z,78.50
2022-08-17T04:35:20.729Z,78.40
2022-08-17T04:37:47.553Z,78.50
2022-08-17T04:40:32.722Z,78.50
2022-08-17T04:43:07.546Z,78.50
2022-08-17T04:45:38.185Z,78.50
2022-08-17T04:48:04.962Z,78.60
2022-08-17T04:50:33.150Z,78.60
2022-08-17T04:53:00.106Z,78.60
2022-08-17T04:55:27.035Z,78.70
2022-08-17T04:57:54.097Z,78.60
2022-08-17T05:00:20.867Z,78.70
2022-08-17T05:02:49.847Z,78.80
2022-08-17T05:05:31.162Z,78.80
2022-08-17T05:07:59.459Z,78.80
2022-08-17T05:10:28.155Z,78.80
2022-08-17T05:12:59.216Z,78.80
2022-08-17T05:15:26.062Z,78.80
2022-08-17T05:17:53.034Z,78.70
2022-08-17T05:20:19.741Z,78.80
2022-08-17T05:22:51.168Z,78.80
2022-08-17T05:25:19.063Z,78.90
2022-08-17T05:27:51.642Z,78.80
2022-08-17T05:30:18.342Z,78.70
2022-08-17T05:32:58.955Z,78.70
2022-08-17T05:35:26.479Z,78.80
2022-08-17T05:37:53.562Z,78.80
2022-08-17T05:40:23.982Z,78.80
2022-08-17T05:42:50.737Z,78.80
2022-08-17T05:45:39.998Z,78.80
2022-08-17T05:48:07.302Z,78.80
2022-08-17T05:50:40.954Z,78.80
2022-08-17T05:53:20.253Z,78.80
2022-08-17T05:56:11.493Z,78.80
2022-08-17T05:58:58.554Z,78.80
2022-08-17T06:01:44.084Z,78.90
2022-08-17T06:04:16.704Z,79.00
2022-08-17T06:06:51.711Z,79.00
2022-08-17T06:09:37.321Z,79.10
2022-08-17T06:12:04.055Z,79.10
2022-08-17T06:14:41.231Z,79.20
2022-08-17T06:17:13.433Z,79.20
2022-08-17T06:19:42.280Z,79.20
2022-08-17T06:22:10.814Z,79.10
2022-08-17T06:24:39.229Z,79.20
2022-08-17T06:27:13.466Z,79.40
2022-08-17T06:29:40.119Z,79.60
2022-08-17T06:32:09.126Z,79.60
2022-08-17T06:34:37.601Z,79.50
2022-08-17T06:37:07.837Z,79.60
2022-08-17T06:39:52.844Z,79.60
2022-08-17T06:43:00.848Z,79.60
2022-08-17T06:45:20.194Z,79.70
2022-08-17T06:47:49.998Z,79.70
2022-08-17T06:50:35.094Z,79.60
2022-08-17T06:53:07.665Z,79.60
2022-08-17T06:55:40.719Z,79.70
2022-08-17T06:58:16.155Z,79.70
2022-08-17T07:00:46.185Z,79.70
2022-08-17T07:03:14.064Z,79.60
2022-08-17T07:05:46.135Z,79.70
2022-08-17T07:08:35.481Z,80.30
2022-08-17T07:11:04.986Z,79.70
2022-08-17T07:13:41.139Z,79.60
2022-08-17T07:16:13.193Z,79.70
2022-08-17T07:18:39.881Z,79.60
2022-08-17T07:21:20.722Z,79.60
2022-08-17T07:24:03.266Z,79.60
2022-08-17T07:26:30.003Z,79.60
2022-08-17T07:28:56.806Z,79.50
2022-08-17T07:31:25.532Z,79.40
2022-08-17T07:34:21.553Z,79.30
2022-08-17T07:37:01.247Z,79.20
2022-08-17T07:39:28.155Z,79.30
2022-08-17T07:42:01.667Z,79.20
2022-08-17T07:44:28.395Z,79.30
2022-08-17T07:47:14.087Z,79.30
2022-08-17T07:49:42.850Z,79.20
2022-08-17T07:52:47.292Z,79.20
2022-08-17T07:54:58.458Z,79.20
2022-08-17T07:57:32.996Z,79.20
2022-08-17T07:59:59.677Z,79.20
2022-08-17T08:02:31.759Z,79.20
2022-08-17T08:05:01.939Z,79.20
2022-08-17T08:07:37.421Z,79.20
2022-08-17T08:10:10.737Z,79.20
2022-08-17T08:12:37.402Z,79.20
2022-08-17T08:15:04.191Z,79.20
2022-08-17T08:17:38.031Z,79.00
2022-08-17T08:20:37.750Z,79.20
2022-08-17T08:22:59.838Z,79.10
2022-08-17T08:25:32.850Z,79.20
2022-08-17T08:28:08.206Z,79.20
2022-08-17T08:30:37.824Z,79.20
2022-08-17T08:33:04.531Z,79.10
2022-08-17T08:35:42.431Z,79.20
2022-08-17T08:38:27.497Z,79.30
2022-08-17T08:41:04.821Z,79.30
2022-08-17T08:43:37.432Z,79.30
2022-08-17T08:46:14.301Z,79.30
2022-08-17T08:49:12.265Z,79.20
2022-08-17T08:51:51.863Z,79.20
2022-08-17T08:54:27.310Z,79.20
2022-08-17T08:57:29.411Z,79.20
2022-08-17T09:00:12.682Z,79.20
2022-08-17T09:02:54.464Z,79.00
2022-08-17T09:05:29.994Z,79.10
2022-08-17T09:07:59.469Z,79.10
2022-08-17T09:10:29.873Z,79.00
2022-08-17T09:13:15.434Z,79.00
2022-08-17T09:15:45.087Z,79.00
2022-08-17T09:19:02.231Z,79.10
2022-08-17T09:21:18.415Z,79.00
2022-08-17T09:23:59.735Z,79.00
2022-08-17T09:27:05.181Z,79.00
2022-08-17T09:29:35.497Z,79.10
2022-08-17T09:32:04.806Z,79.10
2022-08-17T09:34:38.459Z,79.20
2022-08-17T09:37:11.131Z,79.10
2022-08-17T09:39:56.733Z,79.10
2022-08-17T09:42:38.423Z,79.00
2022-08-17T09:45:21.675Z,79.00
2022-08-17T09:47:52.001Z,79.10
2022-08-17T09:51:04.929Z,79.10
2022-08-17T09:53:11.099Z,79.10
2022-08-17T09:56:01.557Z,79.20
2022-08-17T09:58:56.467Z,78.90
2022-08-17T10:01:31.367Z,78.90
2022-08-17T10:04:09.767Z,79.50
2022-08-17T10:06:58.715Z,78.80
2022-08-17T10:09:44.447Z,78.90
2022-08-17T10:12:17.308Z,78.70
2022-08-17T10:14:53.346Z,78.70
2022-08-17T10:17:31.197Z,78.70
2022-08-17T10:20:03.807Z,78.70
2022-08-17T10:22:54.997Z,78.60
2022-08-17T10:25:56.482Z,78.50
2022-08-17T10:28:29.815Z,78.50
2022-08-17T10:31:10.738Z,78.60
2022-08-17T10:34:02.760Z,78.70
2022-08-17T10:36:37.918Z,78.60
2022-08-17T10:39:08.537Z,78.80
2022-08-17T10:41:43.282Z,78.90
2022-08-17T10:44:38.043Z,78.90
2022-08-17T10:47:12.760Z,79.00
2022-08-17T10:49:47.419Z,78.90
2022-08-17T10:52:20.180Z,78.90
2022-08-17T10:54:47.962Z,78.90
2022-08-17T10:57:26.598Z,79.00
2022-08-17T10:59:54.190Z,78.90
2022-08-17T11:02:26.172Z,78.90
2022-08-17T11:05:11.306Z,78.80
2022-08-17T11:07:44.131Z,79.00
2022-08-17T11:10:21.793Z,78.90
2022-08-17T11:12:54.632Z,78.80
2022-08-17T11:15:31.934Z,78.50
2022-08-17T11:18:01.473Z,78.60
2022-08-17T11:20:56.743Z,78.90
2022-08-17T11:23:42.325Z,78.80
2022-08-17T11:26:38.579Z,78.80
2022-08-17T11:29:09.564Z,78.90
2022-08-17T11:31:41.510Z,78.90
2022-08-17T11:34:26.433Z,78.90
2022-08-17T11:37:02.078Z,79.00
2022-08-17T11:39:35.371Z,78.90
2022-08-17T11:42:25.591Z,78.80
2022-08-17T11:44:55.227Z,78.80
2022-08-17T11:48:23.584Z,79.00
2022-08-17T11:51:13.499Z,79.00
2022-08-17T11:53:40.125Z,79.00
2022-08-17T11:56:30.284Z,79.20
2022-08-17T11:58:59.367Z,79.20
2022-08-17T12:01:26.937Z,79.20
2022-08-17T12:03:57.016Z,79.40
2022-08-17T12:06:32.449Z,79.30
2022-08-17T12:09:07.298Z,79.30
2022-08-17T12:12:01.647Z,79.30
2022-08-17T12:15:07.944Z,79.30
2022-08-17T12:17:41.328Z,79.50
2022-08-17T12:20:29.856Z,79.50
2022-08-17T12:23:05.795Z,79.60
2022-08-17T12:25:41.872Z,79.40
2022-08-17T12:28:27.503Z,79.50
2022-08-17T12:30:55.607Z,79.50
2022-08-17T12:33:25.332Z,79.60
2022-08-17T12:36:00.071Z,79.60
2022-08-17T12:38:33.114Z,79.60
2022-08-17T12:41:20.698Z,79.40
2022-08-17T12:43:56.040Z,79.20
2022-08-17T12:46:22.670Z,79.20
2022-08-17T12:48:59.683Z,79.40
2022-08-17T12:51:28.923Z,79.40
2022-08-17T12:53:55.696Z,79.50
2022-08-17T12:56:22.463Z,79.20
2022-08-17T12:58:55.614Z,78.60
2022-08-17T13:01:25.025Z,78.00
2022-08-17T13:03:53.581Z,77.90
2022-08-17T13:06:28.654Z,78.20
2022-08-17T13:08:55.370Z,78.00
2022-08-17T13:11:24.203Z,77.40
2022-08-17T13:13:53.414Z,77.30
2022-08-17T13:16:28.008Z,77.50
2022-08-17T13:19:14.970Z,77.40
2022-08-17T13:21:46.091Z,77.20
2022-08-17T13:24:13.911Z,77.10
2022-08-17T13:26:42.882Z,77.30
2022-08-17T13:29:23.905Z,77.10
2022-08-17T13:32:04.250Z,77.10
2022-08-17T13:34:31.943Z,77.30
2022-08-17T13:37:18.912Z,77.30
2022-08-17T13:39:48.486Z,77.30
2022-08-17T13:42:31.875Z,77.20
2022-08-17T13:44:59.246Z,77.50
2022-08-17T13:47:26.593Z,77.70
2022-08-17T13:49:55.251Z,77.70
2022-08-17T13:52:37.998Z,77.70
2022-08-17T13:55:07.561Z,77.80
2022-08-17T13:57:35.038Z,77.80
2022-08-17T14:00:17.488Z,77.80
2022-08-17T14:02:44.263Z,77.90
2022-08-17T14:05:11.046Z,78.00
2022-08-17T14:07:39.557Z,78.00
2022-08-17T14:10:10.856Z,78.00
2022-08-17T14:12:38.852Z,78.00
2022-08-17T14:15:05.900Z,78.10
2022-08-17T14:17:37.914Z,78.20
2022-08-17T14:20:09.901Z,78.10
2022-08-17T14:22:37.658Z,78.10
2022-08-17T14:25:05.295Z,78.10
2022-08-17T14:27:43.498Z,78.20
2022-08-17T14:30:20.043Z,78.20
2022-08-17T14:32:49.050Z,78.30
2022-08-17T14:35:15.934Z,78.30
2022-08-17T14:37:45.824Z,78.30
2022-08-17T14:40:13.322Z,78.30
2022-08-17T14:42:40.828Z,78.30
2022-08-17T14:45:30.186Z,78.40
2022-08-17T14:47:56.372Z,78.30
2022-08-17T14:50:23.189Z,78.40
2022-08-17T14:52:50.622Z,78.40
2022-08-17T14:55:20.824Z,78.40
2022-08-17T14:57:47.523Z,78.40
2022-08-17T15:00:16.496Z,78.40
2022-08-17T15:02:48.585Z,78.40
2022-08-17T15:05:16.514Z,78.50
2022-08-17T15:07:44.594Z,77.40
2022-08-17T15:10:12.408Z,79.20
2022-08-17T15:12:40.062Z,78.50
2022-08-17T15:15:07.907Z,78.60
2022-08-17T15:17:44.298Z,78.70
2022-08-17T15:20:15.118Z,78.70
2022-08-17T15:22:42.711Z,78.80
2022-08-17T15:25:10.609Z,78.70
2022-08-17T15:27:37.319Z,78.70
2022-08-17T15:30:08.181Z,78.70
2022-08-17T15:32:36.410Z,78.70
2022-08-17T15:35:04.242Z,78.80
2022-08-17T15:37:32.120Z,78.80
2022-08-17T15:40:00.760Z,78.80
2022-08-17T15:42:27.652Z,78.80
2022-08-17T15:44:57.004Z,78.80
2022-08-17T15:47:24.284Z,78.80
2022-08-17T15:49:51.074Z,78.80
2022-08-17T15:52:19.401Z,78.90
2022-08-17T15:54:49.933Z,78.80
2022-08-17T15:57:16.641Z,78.80
2022-08-17T15:59:44.455Z,78.80
2022-08-17T16:03:15.018Z,78.80
2022-08-17T16:05:10.063Z,78.80
2022-08-17T16:07:37.316Z,78.80
2022-08-17T16:10:06.299Z,78.70
2022-08-17T16:12:34.590Z,78.80
2022-08-17T16:15:01.678Z,79.30
2022-08-17T16:17:39.669Z,78.80
2022-08-17T16:20:08.388Z,78.80
2022-08-17T16:22:36.574Z,78.80
2022-08-17T16:25:05.563Z,79.30
2022-08-17T16:27:32.239Z,78.90
2022-08-17T16:29:58.918Z,79.00
2022-08-17T16:32:31.649Z,79.00
2022-08-17T16:35:07.563Z,79.10
2022-08-17T16:37:35.067Z,79.10
2022-08-17T16:40:04.492Z,79.10
2022-08-17T16:42:32.552Z,79.10
2022-08-17T16:45:11.134Z,79.20
2022-08-17T16:47:38.199Z,79.10
2022-08-17T16:50:06.554Z,79.20
2022-08-17T16:52:33.595Z,79.20
2022-08-17T16:55:01.412Z,79.20
2022-08-17T16:57:29.109Z,79.20
2022-08-17T16:59:55.979Z,79.20
2022-08-17T17:02:25.715Z,79.20
2022-08-17T17:05:12.638Z,79.20
2022-08-17T17:07:45.407Z,79.20
2022-08-17T17:10:20.278Z,79.20
2022-08-17T17:13:02.230Z,77.60
2022-08-17T17:15:51.788Z,79.20
2022-08-17T17:18:20.030Z,79.30
2022-08-17T17:20:53.524Z,79.30
2022-08-17T17:23:22.943Z,79.30
2022-08-17T17:25:55.691Z,79.50
2022-08-17T17:28:34.799Z,79.30
2022-08-17T17:31:13.848Z,79.40
2022-08-17T17:33:44.416Z,79.30
2022-08-17T17:36:23.133Z,79.50
2022-08-17T17:38:52.903Z,79.40
2022-08-17T17:41:26.444Z,79.60
2022-08-17T17:43:58.058Z,79.50
2022-08-17T17:46:30.640Z,79.60
2022-08-17T17:48:57.864Z,79.60
2022-08-17T17:52:06.606Z,79.70
2022-08-17T17:54:34.301Z,80.00
2022-08-17T17:57:04.071Z,79.60
2022-08-17T17:59:54.958Z,79.80
2022-08-17T18:02:46.018Z,79.80
2022-08-17T18:05:17.785Z,79.80
2022-08-17T18:07:48.135Z,79.90
2022-08-17T18:10:44.936Z,80.00
2022-08-17T18:13:15.752Z,80.00
2022-08-17T18:15:50.995Z,80.00
2022-08-17T18:18:17.665Z,80.00
2022-08-17T18:20:53.829Z,79.90
2022-08-17T18:23:28.215Z,80.00
2022-08-17T18:25:56.190Z,80.00
2022-08-17T18:28:27.781Z,80.10
2022-08-17T18:31:06.770Z,80.00
2022-08-17T18:33:33.917Z,80.00
2022-08-17T18:36:01.377Z,80.10
2022-08-17T18:38:37.608Z,80.10
2022-08-17T18:41:19.209Z,79.80
2022-08-17T18:43:57.540Z,79.60
2022-08-17T18:46:28.810Z,79.00
2022-08-17T18:48:59.293Z,78.80
2022-08-17T18:51:40.308Z,78.80
2022-08-17T18:54:12.390Z,78.80
2022-08-17T18:56:50.290Z,78.70
2022-08-17T18:59:23.095Z,78.70
2022-08-17T19:02:13.849Z,78.60
2022-08-17T19:05:25.419Z,78.60
2022-08-17T19:07:52.305Z,78.60
2022-08-17T19:10:22.488Z,78.40
2022-08-17T19:12:49.126Z,78.40
2022-08-17T19:15:17.668Z,78.30
2022-08-17T19:17:48.295Z,79.30
2022-08-17T19:20:19.750Z,78.40
2022-08-17T19:22:54.039Z,78.30
2022-08-17T19:25:29.821Z,78.30
2022-08-17T19:28:21.461Z,78.20
2022-08-17T19:30:49.463Z,78.20
2022-08-17T19:33:16.187Z,78.10
2022-08-17T19:35:58.985Z,78.00
2022-08-17T19:38:29.626Z,78.00
2022-08-17T19:41:01.590Z,77.90
2022-08-17T19:43:43.546Z,77.90
2022-08-17T19:46:16.302Z,78.10
2022-08-17T19:48:56.876Z,78.10
2022-08-17T19:51:23.512Z,78.00
2022-08-17T19:54:06.968Z,78.00
2022-08-17T19:56:54.531Z,77.90
2022-08-17T19:59:27.383Z,78.00
2022-08-17T20:02:08.524Z,78.00
2022-08-17T20:04:45.387Z,78.00
2022-08-17T20:07:17.841Z,78.00
2022-08-17T20:09:49.360Z,78.00
2022-08-17T20:12:31.003Z,78.00
2022-08-17T20:15:00.523Z,78.10
2022-08-17T20:17:30.335Z,78.10
2022-08-17T20:19:56.964Z,78.20
2022-08-17T20:22:51.895Z,78.20
2022-08-17T20:25:30.392Z,78.20
2022-08-17T20:28:06.723Z,78.20
2022-08-17T20:30:37.557Z,78.30
2022-08-17T20:33:05.165Z,78.30
2022-08-17T20:35:33.600Z,78.30
2022-08-17T20:38:05.278Z,78.40
2022-08-17T20:40:31.978Z,78.40
2022-08-17T20:42:59.468Z,78.30
2022-08-17T20:45:26.336Z,78.20
2022-08-17T20:48:18.708Z,78.20
2022-08-17T20:50:43.509Z,78.30
2022-08-17T20:53:13.508Z,78.20
2022-08-17T20:55:51.516Z,78.30
2022-08-17T20:58:30.833Z,78.40
2022-08-17T21:00:58.870Z,78.40
2022-08-17T21:03:49.147Z,78.40
2022-08-17T21:06:17.272Z,78.40
2022-08-17T21:08:53.333Z,78.40
2022-08-17T21:11:56.696Z,78.40
2022-08-17T21:14:17.911Z,78.40
2022-08-17T21:17:04.768Z,78.40
2022-08-17T21:19:31.473Z,78.40
2022-08-17T21:22:12.720Z,78.60
2022-08-17T21:24:48.294Z,78.60
2022-08-17T21:27:33.447Z,78.70
2022-08-17T21:30:06.731Z,78.70
2022-08-17T21:32:40.405Z,78.70
2022-08-17T21:35:11.472Z,78.60
2022-08-17T21:37:40.792Z,78.50
2022-08-17T21:40:10.284Z,78.60
2022-08-17T21:42:39.552Z,78.50
2022-08-17T21:45:19.719Z,78.30
2022-08-17T21:47:50.904Z,78.70
2022-08-17T21:50:22.685Z,78.60
2022-08-17T21:52:50.222Z,78.60
2022-08-17T21:55:28.399Z,78.70
2022-08-17T21:58:14.403Z,78.60
2022-08-17T22:00:44.229Z,78.60
2022-08-17T22:03:22.546Z,78.70
2022-08-17T22:05:51.439Z,78.70
2022-08-17T22:08:23.783Z,78.70
2022-08-17T22:10:51.482Z,78.80
2022-08-17T22:13:18.241Z,78.60
2022-08-17T22:15:47.795Z,78.60
2022-08-17T22:18:21.167Z,78.70
2022-08-17T22:20:52.448Z,78.70
2022-08-17T22:23:40.795Z,78.70
2022-08-17T22:26:11.225Z,78.70
2022-08-17T22:28:39.914Z,78.70
2022-08-17T22:31:07.528Z,78.70
2022-08-17T22:33:50.423Z,78.70
2022-08-17T22:36:25.235Z,78.70
2022-08-17T22:38:57.049Z,78.80
2022-08-17T22:41:25.953Z,78.80
2022-08-17T22:43:53.305Z,78.80
2022-08-17T22:46:21.239Z,79.00
2022-08-17T22:48:50.147Z,78.90
2022-08-17T22:51:20.405Z,78.80
2022-08-17T22:54:07.512Z,78.80
2022-08-17T22:56:53.923Z,78.90
2022-08-17T22:59:53.184Z,78.80
2022-08-17T23:02:22.072Z,78.90
2022-08-17T23:04:57.688Z,79.00
2022-08-17T23:07:24.403Z,79.10
2022-08-17T23:09:51.854Z,79.20
2022-08-17T23:12:22.904Z,79.10
2022-08-17T23:14:51.459Z,79.00
2022-08-17T23:17:18.160Z,79.20
2022-08-17T23:19:45.099Z,79.10
2022-08-17T23:22:12.038Z,79.20
2022-08-17T23:24:44.131Z,79.00
2022-08-17T23:27:11.678Z,79.10
2022-08-17T23:29:41.393Z,79.20
2022-08-17T23:32:11.045Z,79.10
2022-08-17T23:34:39.147Z,79.20
2022-08-17T23:37:06.184Z,79.20
2022-08-17T23:39:33.002Z,79.20
2022-08-17T23:42:00.928Z,79.30
2022-08-17T23:44:28.762Z,79.30
2022-08-17T23:46:55.557Z,79.40
2022-08-17T23:49:23.519Z,79.40
2022-08-17T23:51:50.193Z,79.50
2022-08-17T23:54:26.652Z,79.40
2022-08-17T23:56:53.568Z,78.50
2022-08-17T23:59:21.107Z,77.30
